Time;durP1;ratioP1;P1;durP2;ratioP2;P2;SDS_P1;SDS_P2;PMS_P1;PMS_P2;Temp;Humidity;BMP_temperature;BMP_pressure;BME280_temperature;BME280_humidity;BME280_pressure;Samples;Min_cycle;Max_cycle;Signal;HPM_P1;HPM_P2
2023/10/29 00:02:13;;;;;;;2.97;1.40;;;23.80;58.30;;;;;;6208836;28;80378;-72
2023/10/29 00:05:13;;;;;;;2.22;1.23;;;23.80;58.40;;;;;;6219210;28;82910;-74
2023/10/29 00:08:14;;;;;;;1.80;1.10;;;23.80;58.30;;;;;;6204329;28;81336;-74
2023/10/29 00:11:14;;;;;;;2.55;1.40;;;23.80;58.90;;;;;;6155613;28;80456;-74
2023/10/29 00:14:15;;;;;;;2.10;1.27;;;23.80;58.20;;;;;;6189094;28;80850;-74
2023/10/29 00:17:16;;;;;;;2.67;1.10;;;23.80;58.30;;;;;;6173768;28;80499;-73
2023/10/29 00:20:17;;;;;;;3.03;1.55;;;23.90;58.30;;;;;;6155733;28;80826;-74
2023/10/29 00:23:17;;;;;;;1.90;1.10;;;23.80;58.00;;;;;;6197840;28;82850;-73
2023/10/29 00:26:18;;;;;;;2.25;1.10;;;23.80;57.80;;;;;;6188329;28;80991;-73
2023/10/29 00:29:23;;;;;;;1.80;1.05;;;23.80;58.10;;;;;;6159029;28;80999;-74
2023/10/29 00:32:24;;;;;;;1.58;1.23;;;23.80;58.10;;;;;;6179707;28;83230;-74
2023/10/29 00:35:24;;;;;;;1.77;1.30;;;23.80;58.20;;;;;;6193409;28;81583;-75
2023/10/29 00:38:25;;;;;;;2.65;1.30;;;23.90;58.10;;;;;;6184455;28;80726;-67
2023/10/29 00:41:26;;;;;;;2.10;1.30;;;23.80;58.30;;;;;;6186596;28;79999;-65
2023/10/29 00:44:26;;;;;;;1.75;1.15;;;23.80;58.40;;;;;;6161079;28;80593;-67
2023/10/29 00:47:27;;;;;;;1.77;1.20;;;23.80;58.40;;;;;;6186455;28;80335;-65
2023/10/29 00:50:27;;;;;;;2.50;1.20;;;23.80;58.30;;;;;;6181719;28;80700;-66
2023/10/29 00:53:28;;;;;;;1.65;1.20;;;23.80;58.20;;;;;;6165121;28;81955;-68
2023/10/29 00:56:29;;;;;;;2.03;1.27;;;23.80;58.10;;;;;;6202349;27;80599;-68
2023/10/29 00:59:29;;;;;;;1.38;1.20;;;23.80;58.00;;;;;;6171550;28;80847;-68
2023/10/29 01:02:31;;;;;;;2.30;1.23;;;23.80;57.90;;;;;;6168387;28;83804;-68
2023/10/29 01:05:32;;;;;;;1.75;1.30;;;23.80;58.10;;;;;;6152415;28;81004;-70
2023/10/29 01:08:32;;;;;;;2.72;1.25;;;23.80;58.00;;;;;;6157167;28;80928;-66
2023/10/29 01:11:33;;;;;;;2.53;1.40;;;23.80;58.10;;;;;;6165240;28;83499;-66
2023/10/29 01:14:33;;;;;;;2.42;1.08;;;23.80;58.10;;;;;;6163768;28;80386;-65
2023/10/29 01:17:34;;;;;;;3.33;0.90;;;23.80;58.30;;;;;;6155305;28;80642;-65
2023/10/29 01:20:34;;;;;;;2.10;1.33;;;23.80;58.30;;;;;;6157603;28;81063;-68
2023/10/29 01:23:35;;;;;;;2.25;1.48;;;23.80;58.30;;;;;;6168910;28;80882;-68
2023/10/29 01:26:36;;;;;;;1.80;1.20;;;23.80;58.30;;;;;;6178357;28;80363;-68
2023/10/29 01:29:36;;;;;;;2.92;1.00;;;23.80;58.30;;;;;;6178360;28;80768;-67
2023/10/29 01:32:38;;;;;;;0.98;0.88;;;23.80;58.20;;;;;;6177421;28;80257;-67
2023/10/29 01:35:38;;;;;;;1.80;1.20;;;23.80;58.30;;;;;;6160210;28;83303;-66
2023/10/29 01:38:39;;;;;;;1.75;1.20;;;23.80;58.20;;;;;;6177799;28;80768;-68
2023/10/29 01:41:39;;;;;;;3.53;1.15;;;23.90;58.40;;;;;;6167371;28;80078;-68
2023/10/29 01:44:40;;;;;;;4.30;1.00;;;23.90;58.30;;;;;;6167106;28;80289;-70
2023/10/29 01:47:41;;;;;;;1.17;0.88;;;23.80;58.10;;;;;;6169475;28;81887;-66
2023/10/29 01:50:42;;;;;;;1.88;0.90;;;23.80;58.30;;;;;;6163751;28;81125;-65
2023/10/29 01:53:42;;;;;;;1.73;1.10;;;23.80;58.10;;;;;;6171077;28;81720;-64
2023/10/29 01:56:43;;;;;;;3.13;1.50;;;23.80;58.20;;;;;;6173472;28;81374;-65
2023/10/29 01:59:43;;;;;;;2.42;1.20;;;23.80;58.10;;;;;;6188328;28;83478;-66
2023/10/29 02:02:46;;;;;;;2.22;1.25;;;23.80;58.00;;;;;;6171413;28;83463;-66
2023/10/29 02:05:47;;;;;;;2.05;1.20;;;23.80;58.40;;;;;;6172294;28;83429;-65
2023/10/29 02:08:48;;;;;;;1.95;1.10;;;23.80;58.20;;;;;;6179909;28;80689;-66
2023/10/29 02:11:48;;;;;;;1.65;0.98;;;23.80;58.10;;;;;;6183697;28;82380;-67
2023/10/29 02:14:49;;;;;;;1.90;1.13;;;23.80;58.20;;;;;;6181953;28;82985;-65
2023/10/29 02:17:49;;;;;;;1.42;1.00;;;23.80;58.60;;;;;;6191655;27;80715;-65
2023/10/29 02:20:50;;;;;;;2.13;1.00;;;23.80;57.90;;;;;;6202909;28;80874;-65
2023/10/29 02:23:50;;;;;;;1.23;0.93;;;23.80;57.80;;;;;;6182329;28;81141;-66
2023/10/29 02:26:51;;;;;;;3.13;1.27;;;23.80;57.90;;;;;;6177612;28;81010;-66
2023/10/29 02:29:52;;;;;;;1.27;0.93;;;23.80;57.70;;;;;;6190649;28;81014;-67
2023/10/29 02:32:53;;;;;;;1.35;1.10;;;23.80;57.80;;;;;;6213349;27;80120;-65
2023/10/29 02:35:53;;;;;;;1.75;1.00;;;23.80;57.60;;;;;;6213031;27;80698;-66
2023/10/29 02:38:54;;;;;;;2.67;1.27;;;23.80;57.70;;;;;;6223180;27;80681;-66
2023/10/29 02:41:54;;;;;;;1.60;1.23;;;23.80;57.70;;;;;;6199463;28;81015;-66
2023/10/29 02:44:55;;;;;;;2.90;1.30;;;23.80;58.00;;;;;;6222312;27;81397;-67
2023/10/29 02:47:55;;;;;;;1.38;0.95;;;23.80;58.20;;;;;;6221817;28;81684;-71
2023/10/29 02:50:56;;;;;;;1.10;0.90;;;23.70;58.10;;;;;;6212902;27;80507;-71
2023/10/29 02:53:56;;;;;;;1.52;1.25;;;23.80;58.10;;;;;;6220917;28;88133;-72
2023/10/29 02:56:57;;;;;;;2.55;1.30;;;23.80;58.00;;;;;;6203885;28;81558;-71
2023/10/29 03:00:00;;;;;;;2.85;1.02;;;23.70;57.60;;;;;;6207855;28;82454;-72
2023/10/29 03:03:01;;;;;;;1.13;1.00;;;23.70;57.80;;;;;;6207080;28;81406;-74
2023/10/29 03:06:02;;;;;;;1.45;1.15;;;23.80;58.00;;;;;;6209543;28;83789;-73
2023/10/29 03:09:03;;;;;;;1.10;0.93;;;23.70;57.80;;;;;;6224833;27;82298;-69
2023/10/29 03:12:03;;;;;;;2.95;1.20;;;23.70;57.80;;;;;;6221515;28;81948;-69
2023/10/29 03:15:04;;;;;;;2.35;1.10;;;23.80;57.70;;;;;;6205866;28;83454;-71
2023/10/29 03:18:05;;;;;;;1.48;0.82;;;23.80;57.40;;;;;;6209122;28;83135;-70
2023/10/29 03:21:05;;;;;;;2.47;1.08;;;23.70;57.20;;;;;;6223743;28;81252;-74
2023/10/29 03:24:06;;;;;;;2.08;1.20;;;23.80;57.20;;;;;;6212757;28;80174;-69
2023/10/29 03:27:06;;;;;;;1.58;0.95;;;23.80;57.00;;;;;;6220189;27;81096;-68
2023/10/29 03:30:07;;;;;;;3.28;1.30;;;23.80;57.10;;;;;;6220508;28;81064;-68
2023/10/29 03:33:07;;;;;;;2.67;1.10;;;23.70;56.80;;;;;;6208448;28;82721;-66
2023/10/29 03:36:08;;;;;;;1.90;0.90;;;23.70;56.60;;;;;;6217394;27;80871;-64
2023/10/29 03:39:09;;;;;;;1.20;0.90;;;23.70;56.60;;;;;;6211308;27;80748;-65
2023/10/29 03:42:10;;;;;;;2.22;1.00;;;23.70;56.70;;;;;;6212409;27;81612;-65
2023/10/29 03:45:11;;;;;;;2.45;0.90;;;23.70;56.80;;;;;;6222521;27;80744;-66
2023/10/29 03:48:14;;;;;;;1.77;1.20;;;23.70;56.80;;;;;;6189115;28;83870;-67
2023/10/29 03:51:14;;;;;;;2.38;1.33;;;23.70;56.80;;;;;;6186344;28;80868;-65
2023/10/29 03:54:15;;;;;;;2.13;1.20;;;23.70;56.90;;;;;;6182952;28;81555;-65
2023/10/29 03:57:15;;;;;;;1.77;0.95;;;23.70;57.00;;;;;;6209067;28;83498;-66
2023/10/29 04:00:16;;;;;;;2.28;1.00;;;23.70;56.60;;;;;;6215065;28;81708;-65
2023/10/29 04:03:16;;;;;;;2.22;1.00;;;23.70;57.20;;;;;;6208339;27;80487;-65
2023/10/29 04:06:17;;;;;;;1.15;0.90;;;23.70;57.10;;;;;;6194669;28;80827;-70
2023/10/29 04:09:17;;;;;;;4.53;1.08;;;23.70;57.20;;;;;;6190492;28;81957;-68
2023/10/29 04:12:18;;;;;;;1.02;0.80;;;23.70;57.20;;;;;;6168913;28;85508;-67
2023/10/29 04:15:19;;;;;;;1.63;0.82;;;23.70;56.80;;;;;;6178431;28;82057;-67
2023/10/29 04:18:21;;;;;;;4.35;1.20;;;23.80;56.90;;;;;;6175107;28;80457;-67
2023/10/29 04:21:22;;;;;;;1.48;0.93;;;23.70;56.60;;;;;;6183651;28;80483;-67
2023/10/29 04:24:22;;;;;;;2.25;0.80;;;23.80;56.30;;;;;;6196604;27;80966;-68
2023/10/29 04:27:23;;;;;;;2.35;1.17;;;23.70;56.30;;;;;;6172304;28;80361;-68
2023/10/29 04:30:23;;;;;;;1.85;0.70;;;23.70;56.30;;;;;;6171701;28;80223;-67
2023/10/29 04:33:24;;;;;;;1.20;0.80;;;23.70;56.60;;;;;;6169494;28;80424;-67
2023/10/29 04:36:24;;;;;;;1.45;0.80;;;23.70;56.80;;;;;;6159712;28;80335;-66
2023/10/29 04:39:25;;;;;;;1.08;0.80;;;23.70;56.80;;;;;;6200620;28;80302;-69
2023/10/29 04:42:25;;;;;;;4.22;0.82;;;23.70;56.90;;;;;;6220432;27;80570;-66
2023/10/29 04:45:25;;;;;;;1.08;0.70;;;23.70;56.50;;;;;;6218479;27;80815;-65
2023/10/29 04:48:26;;;;;;;1.45;0.95;;;23.80;56.60;;;;;;6189071;28;80830;-66
2023/10/29 04:51:27;;;;;;;2.90;1.33;;;23.80;56.60;;;;;;6197402;28;80420;-66
2023/10/29 04:54:27;;;;;;;1.83;1.10;;;23.70;56.50;;;;;;6214902;27;80673;-65
2023/10/29 04:57:28;;;;;;;1.70;1.20;;;23.80;56.30;;;;;;6213653;27;80335;-72
2023/10/29 05:00:29;;;;;;;1.42;1.00;;;23.80;56.30;;;;;;6211273;27;80434;-68
2023/10/29 05:03:30;;;;;;;2.45;1.08;;;23.70;56.30;;;;;;6201577;28;80557;-68
2023/10/29 05:06:30;;;;;;;1.10;0.90;;;23.80;56.20;;;;;;6228618;28;81742;-68
2023/10/29 05:09:31;;;;;;;3.53;0.90;;;23.80;56.40;;;;;;6213716;28;80101;-67
2023/10/29 05:12:31;;;;;;;1.42;0.90;;;23.80;56.40;;;;;;6223259;28;80576;-69
2023/10/29 05:15:32;;;;;;;1.23;0.88;;;23.80;56.20;;;;;;6222693;27;80434;-68
2023/10/29 05:18:32;;;;;;;1.67;1.00;;;23.80;56.20;;;;;;6205059;28;80438;-69
2023/10/29 05:21:33;;;;;;;1.33;1.05;;;23.80;56.30;;;;;;6214452;28;80426;-68
2023/10/29 05:24:33;;;;;;;1.23;1.10;;;23.80;56.10;;;;;;6220345;27;81009;-66
2023/10/29 05:27:34;;;;;;;1.77;0.80;;;23.80;56.20;;;;;;6197498;28;80378;-67
2023/10/29 05:30:35;;;;;;;1.92;0.98;;;23.80;56.10;;;;;;6189270;28;81615;-67
2023/10/29 05:33:36;;;;;;;1.42;1.10;;;23.70;56.30;;;;;;6208353;28;80500;-66
2023/10/29 05:36:37;;;;;;;1.25;0.90;;;23.70;56.10;;;;;;6222172;28;80373;-66
2023/10/29 05:39:37;;;;;;;3.10;1.00;;;23.80;56.20;;;;;;6216552;27;82676;-67
2023/10/29 05:42:38;;;;;;;1.30;0.90;;;23.70;56.10;;;;;;6212994;27;80535;-67
2023/10/29 05:45:38;;;;;;;1.10;0.65;;;23.70;56.00;;;;;;6191537;28;80443;-66
2023/10/29 05:48:39;;;;;;;0.80;0.73;;;23.70;55.90;;;;;;6201156;28;80231;-68
2023/10/29 05:51:39;;;;;;;1.55;0.80;;;23.70;56.00;;;;;;6204033;28;80765;-66
2023/10/29 05:54:40;;;;;;;1.15;0.93;;;23.80;55.80;;;;;;6214476;28;80483;-65
2023/10/29 05:57:40;;;;;;;1.50;1.10;;;23.70;56.20;;;;;;6164127;28;81121;-67
2023/10/29 06:00:41;;;;;;;1.92;1.05;;;23.80;56.20;;;;;;6175569;28;81093;-68
2023/10/29 06:03:41;;;;;;;2.13;0.82;;;23.80;56.60;;;;;;6217754;28;80636;-68
2023/10/29 06:06:42;;;;;;;1.80;1.10;;;23.80;56.30;;;;;;6182490;28;80880;-66
2023/10/29 06:09:43;;;;;;;3.78;1.27;;;23.80;56.10;;;;;;6190592;28;80556;-65
2023/10/29 06:12:43;;;;;;;1.70;1.30;;;23.80;56.30;;;;;;6201399;28;80384;-64
2023/10/29 06:15:44;;;;;;;2.53;1.35;;;23.80;56.90;;;;;;6192542;28;81217;-63
2023/10/29 06:18:44;;;;;;;2.38;1.20;;;23.80;56.50;;;;;;6177932;28;80219;-61
2023/10/29 06:21:45;;;;;;;3.13;1.30;;;23.80;56.40;;;;;;6174912;28;84437;-63
2023/10/29 06:24:45;;;;;;;2.20;1.45;;;23.80;56.60;;;;;;6168290;28;80751;-65
2023/10/29 06:27:46;;;;;;;3.13;1.38;;;23.90;56.80;;;;;;6189700;28;83169;-63
2023/10/29 06:30:46;;;;;;;2.15;1.15;;;23.90;56.70;;;;;;6208288;28;82032;-65
2023/10/29 06:33:47;;;;;;;4.45;1.20;;;23.80;56.70;;;;;;6221616;27;82481;-63
2023/10/29 06:36:48;;;;;;;4.03;1.35;;;23.80;56.80;;;;;;6221989;27;80260;-65
2023/10/29 06:39:49;;;;;;;4.63;1.42;;;23.90;57.60;;;;;;6218733;27;80363;-65
2023/10/29 06:42:49;;;;;;;4.47;1.50;;;24.00;58.30;;;;;;6218510;27;80608;-66
2023/10/29 06:45:50;;;;;;;2.20;1.15;;;24.00;58.60;;;;;;6194522;28;80689;-70
2023/10/29 06:48:51;;;;;;;5.38;1.33;;;24.00;58.50;;;;;;6169413;28;85762;-65
2023/10/29 06:51:53;;;;;;;6.25;1.40;;;24.10;58.70;;;;;;6188129;28;82661;-68
2023/10/29 06:54:54;;;;;;;4.60;1.23;;;24.10;58.80;;;;;;6211885;27;81734;-67
2023/10/29 06:57:54;;;;;;;1.83;1.13;;;24.10;58.50;;;;;;6203973;28;81816;-67
2023/10/29 07:00:55;;;;;;;6.60;1.73;;;24.20;58.50;;;;;;6186000;28;80692;-65
2023/10/29 07:03:55;;;;;;;8.95;1.63;;;24.10;57.20;;;;;;6192632;28;80694;-64
2023/10/29 07:06:56;;;;;;;2.95;1.88;;;24.20;55.90;;;;;;6185127;28;80457;-70
2023/10/29 07:09:56;;;;;;;9.23;2.00;;;24.10;56.00;;;;;;6184899;28;81392;-63
2023/10/29 07:12:57;;;;;;;6.85;1.80;;;24.10;55.70;;;;;;6191268;28;80963;-65
2023/10/29 07:15:57;;;;;;;6.03;1.63;;;24.10;55.60;;;;;;6176073;28;80450;-64
2023/10/29 07:18:58;;;;;;;3.35;1.40;;;24.10;55.80;;;;;;6183609;28;81195;-63
2023/10/29 07:21:59;;;;;;;4.50;1.60;;;24.10;55.10;;;;;;6201681;28;80741;-69
2023/10/29 07:24:59;;;;;;;7.25;1.73;;;24.10;55.00;;;;;;6215873;27;81803;-69
2023/10/29 07:28:00;;;;;;;2.88;1.70;;;24.00;55.90;;;;;;6185785;28;80714;-65
2023/10/29 07:31:00;;;;;;;3.15;1.77;;;24.00;56.10;;;;;;6178991;28;80291;-70
2023/10/29 07:34:01;;;;;;;6.03;1.90;;;24.00;55.90;;;;;;6203474;28;81395;-74
2023/10/29 07:37:01;;;;;;;6.05;1.70;;;24.00;55.90;;;;;;6218056;27;80672;-72
2023/10/29 07:40:01;;;;;;;2.75;1.60;;;24.00;55.40;;;;;;6192588;28;87184;-68
2023/10/29 07:43:03;;;;;;;5.55;1.70;;;24.00;56.20;;;;;;6217323;27;81314;-62
2023/10/29 07:46:04;;;;;;;4.13;1.60;;;24.00;55.40;;;;;;6219102;27;83809;-63
2023/10/29 07:49:04;;;;;;;5.30;1.48;;;24.00;55.90;;;;;;6220584;27;81199;-63
2023/10/29 07:52:05;;;;;;;19.42;2.38;;;24.00;55.40;;;;;;6188424;28;81081;-63
2023/10/29 07:55:06;;;;;;;4.93;2.67;;;24.00;55.90;;;;;;6195009;28;80323;-62
2023/10/29 07:58:06;;;;;;;6.28;1.90;;;24.00;56.20;;;;;;6180212;28;82155;-62
2023/10/29 08:01:07;;;;;;;8.02;2.70;;;24.00;55.20;;;;;;6174554;28;81584;-69
2023/10/29 08:04:07;;;;;;;4.20;2.20;;;24.00;55.30;;;;;;6174206;28;81671;-67
2023/10/29 08:07:08;;;;;;;7.28;2.40;;;23.90;54.90;;;;;;6179441;28;81614;-66
2023/10/29 08:10:08;;;;;;;5.75;2.20;;;23.90;54.80;;;;;;6180863;28;81839;-66
2023/10/29 08:13:10;;;;;;;3.75;2.40;;;24.00;54.60;;;;;;6180586;28;81631;-66
2023/10/29 08:16:10;;;;;;;4.30;2.45;;;24.00;54.10;;;;;;6145673;28;81879;-63
2023/10/29 08:19:11;;;;;;;9.55;2.83;;;23.90;54.50;;;;;;6134718;28;81803;-66
2023/10/29 08:22:11;;;;;;;4.75;2.60;;;24.00;54.50;;;;;;6136288;28;82838;-63
2023/10/29 08:25:12;;;;;;;4.65;2.80;;;24.00;54.10;;;;;;6133478;28;81188;-63
2023/10/29 08:28:12;;;;;;;7.55;3.33;;;24.10;53.80;;;;;;6136194;28;81876;-67
2023/10/29 08:31:14;;;;;;;5.22;2.72;;;24.10;53.80;;;;;;6148959;28;81290;-66
2023/10/29 08:34:15;;;;;;;5.07;2.70;;;24.10;53.80;;;;;;6144631;28;82558;-66
2023/10/29 08:37:17;;;;;;;3.75;2.58;;;24.20;54.10;;;;;;6139088;28;81245;-65
2023/10/29 08:40:17;;;;;;;6.78;3.22;;;24.30;54.20;;;;;;6156653;28;82566;-62
2023/10/29 08:43:18;;;;;;;4.90;3.03;;;24.30;54.10;;;;;;6155333;28;82605;-64
2023/10/29 08:46:18;;;;;;;4.18;2.45;;;24.30;53.60;;;;;;6155595;28;81284;-60
2023/10/29 08:49:19;;;;;;;6.63;2.20;;;24.30;53.20;;;;;;6154296;28;81567;-62
2023/10/29 08:52:19;;;;;;;5.95;2.50;;;24.40;54.20;;;;;;6152423;28;80901;-59
2023/10/29 08:55:20;;;;;;;8.05;2.92;;;24.40;53.70;;;;;;6154041;28;81732;-63
2023/10/29 08:58:20;;;;;;;10.02;1.80;;;24.40;52.20;;;;;;6155618;28;81419;-68
2023/10/29 09:01:21;;;;;;;1.65;1.13;;;24.00;51.40;;;;;;6146871;28;80900;-65
2023/10/29 09:04:22;;;;;;;5.85;1.58;;;23.90;50.80;;;;;;6148464;28;82774;-66
2023/10/29 09:07:23;;;;;;;4.13;1.75;;;23.80;50.70;;;;;;6151217;28;81291;-68
2023/10/29 09:10:24;;;;;;;2.67;1.50;;;23.60;50.30;;;;;;6155405;28;81336;-65
2023/10/29 09:13:25;;;;;;;5.30;1.80;;;23.40;50.00;;;;;;6168546;28;82385;-64
2023/10/29 09:16:25;;;;;;;4.78;1.58;;;23.40;50.30;;;;;;6177424;28;80201;-61
2023/10/29 09:19:27;;;;;;;3.72;1.30;;;23.50;50.10;;;;;;6218324;28;80751;-62
2023/10/29 09:22:28;;;;;;;4.22;1.50;;;23.40;50.20;;;;;;6170200;28;82004;-65
2023/10/29 09:25:28;;;;;;;5.93;1.40;;;23.30;49.90;;;;;;6178655;28;80349;-66
2023/10/29 09:28:29;;;;;;;3.83;1.20;;;23.30;49.90;;;;;;6172430;28;80426;-69
2023/10/29 09:31:29;;;;;;;2.13;1.30;;;23.30;50.00;;;;;;6162292;28;82853;-64
2023/10/29 09:34:31;;;;;;;2.85;1.38;;;23.50;50.50;;;;;;6142959;28;81820;-64
2023/10/29 09:37:33;;;;;;;3.92;1.30;;;23.50;50.40;;;;;;6152810;28;84555;-63
2023/10/29 09:40:33;;;;;;;2.92;1.42;;;23.60;50.20;;;;;;6151329;28;86029;-67
2023/10/29 09:43:34;;;;;;;3.33;1.40;;;23.70;50.00;;;;;;6147387;28;81290;-66
2023/10/29 09:46:34;;;;;;;4.07;1.20;;;23.50;49.30;;;;;;6153403;28;81869;-67
2023/10/29 09:49:35;;;;;;;2.45;1.20;;;23.60;49.80;;;;;;6151777;28;81816;-66
2023/10/29 09:52:36;;;;;;;6.53;1.20;;;23.70;49.80;;;;;;6156144;28;81136;-66
2023/10/29 09:55:36;;;;;;;3.85;1.85;;;23.70;49.30;;;;;;6151272;28;81485;-64
2023/10/29 09:58:37;;;;;;;3.90;1.30;;;23.70;49.20;;;;;;6152702;28;83809;-67
2023/10/29 10:01:37;;;;;;;3.00;1.70;;;23.80;48.80;;;;;;6153006;28;81036;-68
2023/10/29 10:04:38;;;;;;;4.30;1.58;;;23.90;48.60;;;;;;6153226;28;81204;-67
2023/10/29 10:07:38;;;;;;;1.92;1.25;;;23.80;48.70;;;;;;6155788;28;81162;-67
2023/10/29 10:10:39;;;;;;;4.25;1.27;;;23.90;48.10;;;;;;6152699;28;81547;-63
2023/10/29 10:13:41;;;;;;;2.22;1.10;;;23.90;48.20;;;;;;6154205;28;82894;-63
2023/10/29 10:16:41;;;;;;;4.28;1.52;;;23.90;48.20;;;;;;6141429;28;81189;-63
2023/10/29 10:19:42;;;;;;;4.65;2.00;;;24.10;48.60;;;;;;6156818;28;81212;-63
2023/10/29 10:22:43;;;;;;;3.78;1.42;;;24.30;48.00;;;;;;6142052;28;81563;-64
2023/10/29 10:25:43;;;;;;;2.53;1.50;;;24.40;48.10;;;;;;6152918;28;81524;-64
2023/10/29 10:28:44;;;;;;;5.75;1.45;;;24.40;47.70;;;;;;6157543;28;81813;-73
2023/10/29 10:31:44;;;;;;;3.88;1.70;;;24.40;47.40;;;;;;6175598;28;85090;-73
2023/10/29 10:34:45;;;;;;;3.22;1.38;;;24.40;48.20;;;;;;6180095;28;81661;-72
2023/10/29 10:37:45;;;;;;;1.85;1.00;;;24.30;47.20;;;;;;6176082;28;80588;-70
2023/10/29 10:40:46;;;;;;;3.60;1.38;;;24.30;47.90;;;;;;6203727;28;80566;-70
2023/10/29 10:43:47;;;;;;;2.67;1.20;;;24.40;47.80;;;;;;6177761;28;82717;-71
2023/10/29 10:46:47;;;;;;;2.60;1.17;;;24.30;47.60;;;;;;6181334;28;80972;-68
2023/10/29 10:49:49;;;;;;;4.97;1.50;;;24.20;47.80;;;;;;6182878;28;80184;-66
2023/10/29 10:52:49;;;;;;;6.15;1.30;;;24.10;47.70;;;;;;6190659;28;81316;-73
2023/10/29 10:55:50;;;;;;;4.18;1.50;;;24.10;48.30;;;;;;6176391;28;80222;-70
2023/10/29 10:58:51;;;;;;;3.40;1.42;;;24.10;48.00;;;;;;6201093;28;79942;-67
2023/10/29 11:01:52;;;;;;;2.05;1.20;;;24.10;48.00;;;;;;6187523;28;82030;-74
2023/10/29 11:04:52;;;;;;;3.13;1.40;;;24.10;48.40;;;;;;6175726;28;84949;-72
2023/10/29 11:07:53;;;;;;;3.40;1.50;;;24.10;48.10;;;;;;6175572;28;80680;-69
2023/10/29 11:10:53;;;;;;;3.40;1.30;;;24.10;48.00;;;;;;6177109;28;80952;-72
2023/10/29 11:13:55;;;;;;;2.80;1.45;;;24.10;47.10;;;;;;6167806;28;80498;-66
2023/10/29 11:16:55;;;;;;;4.97;1.42;;;24.00;47.40;;;;;;6176488;28;81924;-70
2023/10/29 11:19:57;;;;;;;2.70;1.33;;;24.10;47.60;;;;;;6177458;28;81741;-67
2023/10/29 11:22:59;;;;;;;5.40;1.40;;;24.20;47.50;;;;;;6200527;28;80335;-70
2023/10/29 11:25:59;;;;;;;2.53;1.25;;;24.40;47.90;;;;;;6177255;28;82005;-67
2023/10/29 11:29:00;;;;;;;2.20;1.20;;;24.40;47.10;;;;;;6169279;28;80832;-69
2023/10/29 11:32:00;;;;;;;2.47;1.45;;;24.40;47.20;;;;;;6178555;28;80884;-69
2023/10/29 11:35:01;;;;;;;2.47;1.25;;;24.40;47.40;;;;;;6174545;28;81051;-67
2023/10/29 11:38:02;;;;;;;2.10;1.23;;;24.40;47.20;;;;;;6207771;27;80735;-68
2023/10/29 11:41:03;;;;;;;4.13;1.52;;;24.50;47.80;;;;;;6198487;28;81111;-74
2023/10/29 11:44:03;;;;;;;4.10;1.35;;;24.70;47.50;;;;;;6199704;27;82872;-74
2023/10/29 11:47:04;;;;;;;2.47;1.10;;;24.80;47.60;;;;;;6212968;28;80409;-75
2023/10/29 11:50:05;;;;;;;2.72;1.00;;;24.80;47.30;;;;;;6188842;28;81258;-75
2023/10/29 11:53:06;;;;;;;4.15;1.40;;;24.70;47.10;;;;;;6213131;27;80832;-79
2023/10/29 11:56:09;;;;;;;4.40;1.20;;;24.70;46.70;;;;;;6218816;28;81857;-60
2023/10/29 11:59:10;;;;;;;2.53;1.52;;;24.80;47.60;;;;;;6210104;27;80220;-60
2023/10/29 12:02:10;;;;;;;4.72;2.13;;;24.70;46.50;;;;;;6205176;28;80346;-61
2023/10/29 12:05:11;;;;;;;5.00;1.73;;;24.80;47.10;;;;;;6197569;28;80279;-59
2023/10/29 12:08:11;;;;;;;6.20;1.52;;;25.00;47.20;;;;;;6176413;28;86619;-62
2023/10/29 12:11:13;;;;;;;3.05;1.30;;;25.00;47.30;;;;;;6200707;28;80352;-61
2023/10/29 12:14:13;;;;;;;2.95;1.48;;;25.10;46.50;;;;;;6174227;28;80354;-61
2023/10/29 12:17:14;;;;;;;7.95;1.80;;;25.10;46.90;;;;;;6176296;28;81052;-62
2023/10/29 12:20:14;;;;;;;5.38;1.60;;;24.80;46.10;;;;;;6193685;28;80320;-63
2023/10/29 12:23:15;;;;;;;6.03;1.27;;;24.60;46.20;;;;;;6196757;28;80603;-61
2023/10/29 12:26:15;;;;;;;3.58;1.38;;;24.40;46.40;;;;;;6199675;28;80481;-61
2023/10/29 12:29:16;;;;;;;3.83;1.67;;;24.40;46.90;;;;;;6204398;28;81533;-63
2023/10/29 12:32:17;;;;;;;5.55;1.55;;;24.50;47.30;;;;;;6202134;28;81454;-61
2023/10/29 12:35:18;;;;;;;5.35;1.77;;;24.60;46.80;;;;;;6181019;28;81393;-61
2023/10/29 12:38:18;;;;;;;2.70;1.30;;;24.50;46.60;;;;;;6212607;27;81738;-62
2023/10/29 12:41:19;;;;;;;4.32;1.60;;;24.50;46.70;;;;;;6197140;28;80777;-60
2023/10/29 12:44:21;;;;;;;4.43;1.20;;;24.50;46.40;;;;;;6179309;28;80323;-61
2023/10/29 12:47:22;;;;;;;2.53;1.20;;;24.60;46.30;;;;;;6196647;28;81355;-63
2023/10/29 12:50:22;;;;;;;2.00;1.20;;;24.50;46.10;;;;;;6198603;28;80785;-63
2023/10/29 12:53:23;;;;;;;1.40;0.90;;;24.40;45.30;;;;;;6178126;28;81516;-67
2023/10/29 12:56:23;;;;;;;3.92;1.13;;;24.40;45.20;;;;;;6171870;28;81604;-66
2023/10/29 12:59:27;;;;;;;3.63;1.27;;;24.40;45.20;;;;;;6216582;28;80251;-68
2023/10/29 13:02:28;;;;;;;3.03;1.20;;;24.40;44.60;;;;;;6195877;28;80369;-68
2023/10/29 13:05:28;;;;;;;5.03;1.38;;;24.30;44.10;;;;;;6165459;28;83037;-69
2023/10/29 13:08:29;;;;;;;2.25;1.20;;;24.20;44.90;;;;;;6184314;28;80459;-70
2023/10/29 13:11:30;;;;;;;4.05;1.48;;;24.10;44.90;;;;;;6180932;28;83808;-68
2023/10/29 13:14:33;;;;;;;6.32;1.40;;;24.10;45.10;;;;;;6188050;28;80615;-70
2023/10/29 13:17:34;;;;;;;2.75;1.20;;;24.00;44.70;;;;;;6175907;28;80855;-69
2023/10/29 13:20:34;;;;;;;2.78;1.10;;;24.00;45.20;;;;;;6182843;28;81358;-72
2023/10/29 13:23:35;;;;;;;4.13;1.30;;;23.90;45.40;;;;;;6171850;28;80543;-67
2023/10/29 13:26:35;;;;;;;3.20;1.27;;;23.70;45.60;;;;;;6196400;28;80553;-68
2023/10/29 13:29:39;;;;;;;2.35;1.48;;;23.70;46.40;;;;;;6178001;28;82204;-65
2023/10/29 13:32:39;;;;;;;5.05;1.48;;;23.60;46.10;;;;;;6185390;28;81119;-65
2023/10/29 13:35:40;;;;;;;4.00;1.20;;;23.40;46.40;;;;;;6196813;28;80364;-67
2023/10/29 13:38:40;;;;;;;4.70;1.90;;;23.30;46.70;;;;;;6184135;28;81991;-68
2023/10/29 13:41:41;;;;;;;3.58;1.10;;;23.20;47.20;;;;;;6196626;28;80972;-67
2023/10/29 13:44:41;;;;;;;4.35;1.15;;;23.20;47.30;;;;;;6172379;28;82933;-67
2023/10/29 13:47:42;;;;;;;4.63;1.40;;;23.10;47.70;;;;;;6185709;28;80410;-68
2023/10/29 13:50:43;;;;;;;5.07;1.08;;;22.90;47.90;;;;;;6177486;28;82814;-66
2023/10/29 13:53:43;;;;;;;1.90;1.10;;;23.00;48.20;;;;;;6195928;28;80862;-67
2023/10/29 13:56:44;;;;;;;5.97;1.80;;;22.90;48.60;;;;;;6178012;28;81522;-63
2023/10/29 13:59:45;;;;;;;4.65;1.42;;;23.00;48.70;;;;;;6198086;28;81201;-66
2023/10/29 14:02:45;;;;;;;3.53;1.30;;;23.00;49.80;;;;;;6185867;28;80603;-65
2023/10/29 14:05:46;;;;;;;11.43;1.33;;;22.90;50.00;;;;;;6193004;28;80928;-63
2023/10/29 14:08:47;;;;;;;4.90;1.40;;;22.90;49.90;;;;;;6170938;28;81090;-61
2023/10/29 14:11:47;;;;;;;1.90;1.02;;;22.90;50.00;;;;;;6189069;28;81564;-65
2023/10/29 14:14:48;;;;;;;3.47;2.08;;;23.00;50.20;;;;;;6180499;28;80369;-63
2023/10/29 14:17:48;;;;;;;4.82;1.40;;;23.20;50.40;;;;;;6186051;28;80993;-63
2023/10/29 14:20:49;;;;;;;3.72;1.52;;;23.40;50.30;;;;;;6195947;28;81243;-62
2023/10/29 14:23:49;;;;;;;2.90;0.98;;;23.50;50.40;;;;;;6185421;28;80975;-61
2023/10/29 14:26:51;;;;;;;3.95;1.42;;;23.50;50.50;;;;;;6194710;28;81533;-61
2023/10/29 14:29:52;;;;;;;4.18;1.55;;;23.60;49.90;;;;;;6145007;28;82124;-62
2023/10/29 14:32:52;;;;;;;3.30;1.20;;;23.50;49.90;;;;;;6157066;28;80613;-61
2023/10/29 14:35:53;;;;;;;4.85;1.75;;;23.50;49.90;;;;;;6170941;28;81762;-60
2023/10/29 14:38:55;;;;;;;5.15;1.75;;;23.50;50.00;;;;;;6198680;28;82431;-59
2023/10/29 14:41:56;;;;;;;2.92;1.40;;;23.60;50.50;;;;;;6180464;28;82125;-59
2023/10/29 14:44:57;;;;;;;5.13;1.35;;;23.60;50.50;;;;;;6167701;28;81438;-61
2023/10/29 14:48:00;;;;;;;5.88;1.55;;;23.60;52.30;;;;;;6189957;28;81429;-60
2023/10/29 14:51:00;;;;;;;2.92;1.35;;;23.70;51.80;;;;;;6167798;28;80443;-60
2023/10/29 14:54:00;;;;;;;5.50;2.80;;;23.70;50.90;;;;;;6191207;28;81885;-59
2023/10/29 14:57:01;;;;;;;5.10;1.40;;;23.60;50.60;;;;;;6157844;28;82777;-59
2023/10/29 15:00:05;;;;;;;3.28;1.50;;;23.40;50.60;;;;;;6171426;28;83239;-59
2023/10/29 15:03:06;;;;;;;8.63;2.00;;;23.20;50.40;;;;;;6192619;28;81099;-60
2023/10/29 15:06:06;;;;;;;4.15;1.50;;;22.90;50.20;;;;;;6197389;28;85086;-61
2023/10/29 15:09:07;;;;;;;5.95;1.90;;;22.90;51.00;;;;;;6191391;28;82720;-59
2023/10/29 15:12:07;;;;;;;4.35;1.58;;;22.70;50.90;;;;;;6195523;28;81302;-61
2023/10/29 15:15:08;;;;;;;3.42;1.52;;;22.70;51.30;;;;;;6204279;28;80869;-62
2023/10/29 15:18:08;;;;;;;4.78;2.03;;;22.90;51.20;;;;;;6196873;28;80899;-60
2023/10/29 15:21:09;;;;;;;5.60;1.83;;;22.90;51.00;;;;;;6188471;28;80948;-61
2023/10/29 15:24:09;;;;;;;6.30;2.03;;;22.70;50.70;;;;;;6178806;28;83949;-62
2023/10/29 15:27:10;;;;;;;3.17;1.67;;;22.70;51.30;;;;;;6169099;28;81145;-65
2023/10/29 15:30:11;;;;;;;8.13;1.80;;;22.70;50.90;;;;;;6203741;28;80800;-65
2023/10/29 15:33:11;;;;;;;4.93;1.92;;;22.80;51.40;;;;;;6172523;28;80273;-63
2023/10/29 15:36:12;;;;;;;6.25;2.33;;;22.80;50.90;;;;;;6170653;28;81511;-63
2023/10/29 15:39:12;;;;;;;4.70;1.80;;;22.90;51.40;;;;;;6202285;28;81114;-68